Time;durP1;ratioP1;P1;durP2;ratioP2;P2;SDS_P1;SDS_P2;PMS_P1;PMS_P2;Temp;Humidity;BMP_temperature;BMP_pressure;BME280_temperature;BME280_humidity;BME280_pressure;Samples;Min_cycle;Max_cycle;Signal;HPM_P1;HPM_P2
2022/06/12 00:00:53;;;;;;;7.10;3.53;;;17.40;99.90;;;;;;5013258;28;20215;-62
2022/06/12 00:03:25;;;;;;;7.17;3.27;;;17.40;99.90;;;;;;5013113;28;20227;-63
2022/06/12 00:05:53;;;;;;;6.33;3.17;;;17.30;99.90;;;;;;5012734;28;20581;-63
2022/06/12 00:08:22;;;;;;;7.00;3.10;;;17.30;1.00;;;;;;5012918;28;20248;-63
2022/06/12 00:10:51;;;;;;;8.87;3.40;;;17.30;1.00;;;;;;5013122;28;20238;-62
2022/06/12 00:13:21;;;;;;;9.90;3.53;;;17.20;1.00;;;;;;5013096;28;20253;-63
2022/06/12 00:15:48;;;;;;;9.30;3.40;;;17.20;1.00;;;;;;5012800;28;20333;-62
2022/06/12 00:18:15;;;;;;;5.77;3.40;;;17.10;1.00;;;;;;5012465;28;20740;-62
2022/06/12 00:20:43;;;;;;;9.60;3.53;;;17.10;1.00;;;;;;5013406;28;20671;-63
2022/06/12 00:23:13;;;;;;;6.47;3.30;;;17.00;1.00;;;;;;5013625;28;20231;-63
2022/06/12 00:25:40;;;;;;;12.63;3.90;;;17.00;1.00;;;;;;5013492;28;20724;-62
2022/06/12 00:28:08;;;;;;;7.60;3.17;;;16.90;1.00;;;;;;5012877;28;20207;-62
2022/06/12 00:30:35;;;;;;;7.80;3.53;;;16.90;1.00;;;;;;5012822;28;20215;-62
2022/06/12 00:33:02;;;;;;;8.93;3.77;;;16.90;1.00;;;;;;5012670;28;20206;-62
2022/06/12 00:35:33;;;;;;;10.67;3.90;;;16.80;1.00;;;;;;5012013;28;20626;-62
2022/06/12 00:38:02;;;;;;;8.10;3.60;;;16.80;1.00;;;;;;5012459;28;20264;-62
2022/06/12 00:40:29;;;;;;;8.13;4.13;;;16.70;1.00;;;;;;5012415;28;20211;-63
2022/06/12 00:43:00;;;;;;;8.23;4.20;;;16.70;1.00;;;;;;5012428;28;20813;-62
2022/06/12 00:45:42;;;;;;;10.17;4.33;;;16.70;8.00;;;;;;5012205;28;20231;-62
2022/06/12 00:48:12;;;;;;;10.07;3.80;;;16.60;78.80;;;;;;5012379;28;20346;-62
2022/06/12 00:50:43;;;;;;;12.30;4.80;;;16.50;99.90;;;;;;5012483;28;20210;-62
2022/06/12 00:53:16;;;;;;;12.83;4.87;;;16.40;99.90;;;;;;5012515;28;20226;-62
2022/06/12 00:55:48;;;;;;;11.00;5.07;;;16.40;99.90;;;;;;5012233;28;20227;-62
2022/06/12 00:58:19;;;;;;;7.97;4.33;;;16.30;99.90;;;;;;5011928;28;20215;-62
2022/06/12 01:00:47;;;;;;;11.43;4.53;;;16.30;99.90;;;;;;5012510;28;20552;-62
2022/06/12 01:03:15;;;;;;;8.57;3.70;;;16.30;99.90;;;;;;5012051;28;20233;-62
2022/06/12 01:08:29;;;;;;;7.10;3.90;;;16.30;99.90;;;;;;5011972;28;20209;-62
2022/06/12 01:10:59;;;;;;;9.97;4.40;;;16.20;1.00;;;;;;5012678;28;20210;-62
2022/06/12 01:13:30;;;;;;;12.03;4.93;;;16.10;1.00;;;;;;5011923;28;20258;-62
2022/06/12 01:16:01;;;;;;;9.63;4.50;;;16.10;1.00;;;;;;5011793;28;20239;-62
2022/06/12 01:18:30;;;;;;;12.60;5.17;;;16.10;1.00;;;;;;5012159;28;20210;-62
2022/06/12 01:21:07;;;;;;;8.43;4.67;;;16.00;1.00;;;;;;5012049;28;20215;-62
2022/06/12 01:24:05;;;;;;;11.47;4.67;;;15.90;61.60;;;;;;5012224;28;20633;-62
2022/06/12 01:27:01;;;;;;;8.10;4.30;;;15.90;99.90;;;;;;5011651;28;20783;-62
2022/06/12 01:29:36;;;;;;;9.13;4.33;;;15.80;99.90;;;;;;5012167;28;20207;-62
2022/06/12 01:32:06;;;;;;;10.80;4.50;;;15.70;1.00;;;;;;5011976;28;20207;-62
2022/06/12 01:34:38;;;;;;;8.93;4.33;;;15.60;1.00;;;;;;5012005;28;20219;-62
2022/06/12 01:37:17;;;;;;;9.20;4.17;;;15.60;99.90;;;;;;5011471;28;20634;-62
2022/06/12 01:39:51;;;;;;;8.97;4.40;;;15.50;1.00;;;;;;5011723;28;20207;-62
2022/06/12 01:42:24;;;;;;;8.77;4.13;;;15.50;99.90;;;;;;5011807;28;20621;-62
2022/06/12 01:45:02;;;;;;;13.23;4.60;;;15.40;1.00;;;;;;5011890;28;20235;-62
2022/06/12 01:47:35;;;;;;;12.30;4.30;;;15.40;1.00;;;;;;5014314;28;20210;-62
2022/06/12 01:50:11;;;;;;;6.50;3.70;;;15.30;99.90;;;;;;5015707;28;20253;-62
2022/06/12 01:52:46;;;;;;;10.70;3.97;;;15.20;1.00;;;;;;5016171;28;20207;-62
2022/06/12 01:55:20;;;;;;;7.60;3.87;;;15.20;99.90;;;;;;5015741;28;20219;-62
2022/06/12 01:57:57;;;;;;;7.70;3.77;;;15.20;99.90;;;;;;5015465;28;20324;-62
2022/06/12 02:00:27;;;;;;;7.97;3.90;;;15.10;1.00;;;;;;5015561;28;20237;-63
2022/06/12 02:02:58;;;;;;;10.93;3.77;;;15.10;45.30;;;;;;5015690;28;20677;-63
2022/06/12 02:05:28;;;;;;;7.83;3.70;;;15.00;99.90;;;;;;5015410;28;20285;-63
2022/06/12 02:07:59;;;;;;;9.90;3.90;;;15.00;99.90;;;;;;5015218;28;20298;-63
2022/06/12 02:10:30;;;;;;;8.60;4.17;;;14.90;99.90;;;;;;5015287;28;20210;-63
2022/06/12 02:13:11;;;;;;;7.30;3.73;;;14.90;1.00;;;;;;5015091;28;20844;-63
2022/06/12 02:15:45;;;;;;;6.60;3.87;;;14.80;1.00;;;;;;5015054;28;20323;-63
2022/06/12 02:18:20;;;;;;;9.10;3.67;;;14.80;1.00;;;;;;5014996;28;20673;-63
2022/06/12 02:20:51;;;;;;;9.83;4.17;;;14.70;1.00;;;;;;5015272;28;20206;-64
2022/06/12 02:23:22;;;;;;;11.33;3.70;;;14.70;1.00;;;;;;5014910;28;20214;-63
2022/06/12 02:25:52;;;;;;;6.80;4.33;;;14.60;99.90;;;;;;5014904;28;20230;-63
2022/06/12 02:28:24;;;;;;;6.87;3.80;;;14.50;99.90;;;;;;5015000;28;20217;-63
2022/06/12 02:30:58;;;;;;;6.50;3.93;;;14.50;99.90;;;;;;5015085;28;20203;-63
2022/06/12 02:33:27;;;;;;;8.47;4.20;;;14.40;99.90;;;;;;5014921;28;20326;-63
2022/06/12 02:36:00;;;;;;;10.90;4.13;;;14.40;1.00;;;;;;5014360;28;20729;-63
2022/06/12 02:38:30;;;;;;;9.63;4.00;;;14.30;1.00;;;;;;5014752;28;20735;-63
2022/06/12 02:41:01;;;;;;;13.40;3.83;;;14.30;1.00;;;;;;5014778;28;20677;-63
2022/06/12 02:43:32;;;;;;;8.77;4.33;;;14.30;1.00;;;;;;5014667;28;20739;-63
2022/06/12 02:46:05;;;;;;;9.77;4.23;;;14.20;1.00;;;;;;5014254;28;20227;-63
2022/06/12 02:48:33;;;;;;;7.83;4.10;;;14.20;20.30;;;;;;5015128;28;20213;-63
2022/06/12 02:51:06;;;;;;;14.97;4.50;;;14.10;40.90;;;;;;5014694;28;20261;-63
2022/06/12 02:53:41;;;;;;;9.77;4.30;;;14.10;55.40;;;;;;5014807;28;20214;-63
2022/06/12 02:56:18;;;;;;;9.43;3.97;;;14.00;66.90;;;;;;5014041;28;20288;-63
2022/06/12 02:58:52;;;;;;;10.63;4.53;;;14.00;78.70;;;;;;5013747;28;20206;-63
2022/06/12 03:01:26;;;;;;;11.50;4.27;;;14.00;85.80;;;;;;5014458;28;20206;-63
2022/06/12 03:03:59;;;;;;;11.20;4.50;;;13.90;91.60;;;;;;5014263;28;20249;-63
2022/06/12 03:06:27;;;;;;;8.03;4.10;;;13.90;94.60;;;;;;5014029;28;20207;-63
2022/06/12 03:08:56;;;;;;;6.97;3.70;;;13.80;97.50;;;;;;5014099;28;20692;-63
2022/06/12 03:11:25;;;;;;;10.70;4.13;;;13.80;99.90;;;;;;5014374;28;20280;-63
2022/06/12 03:13:55;;;;;;;8.30;3.53;;;13.80;99.90;;;;;;5013995;28;20307;-63
2022/06/12 03:16:27;;;;;;;9.37;4.30;;;13.80;99.90;;;;;;5013777;28;20211;-63
2022/06/12 03:18:58;;;;;;;9.37;4.03;;;13.80;99.90;;;;;;5013908;28;20305;-63
2022/06/12 03:21:36;;;;;;;10.77;4.00;;;13.70;99.90;;;;;;5014129;28;20206;-63
2022/06/12 03:24:18;;;;;;;9.10;4.53;;;13.70;99.90;;;;;;5013459;28;20713;-63
2022/06/12 03:26:53;;;;;;;7.60;3.87;;;13.60;99.90;;;;;;5013726;28;20210;-63
2022/06/12 03:29:32;;;;;;;10.87;4.20;;;13.60;99.90;;;;;;5013976;28;20217;-63
2022/06/12 03:32:10;;;;;;;11.27;4.60;;;13.60;99.90;;;;;;5013778;28;20214;-63
2022/06/12 03:34:42;;;;;;;9.20;4.20;;;13.60;99.90;;;;;;5013994;28;20222;-63
2022/06/12 03:37:14;;;;;;;11.60;4.13;;;13.60;99.90;;;;;;5013384;28;20256;-63
2022/06/12 03:39:45;;;;;;;11.23;4.03;;;13.60;99.90;;;;;;5013644;28;20240;-63
2022/06/12 03:42:19;;;;;;;7.33;3.63;;;13.60;99.90;;;;;;5013295;28;20210;-63
2022/06/12 03:44:57;;;;;;;8.60;3.97;;;13.50;99.90;;;;;;5013318;28;20881;-63
2022/06/12 03:47:30;;;;;;;7.90;3.73;;;13.50;99.90;;;;;;5013138;28;20669;-63
2022/06/12 03:50:03;;;;;;;7.37;3.80;;;13.50;99.90;;;;;;5013693;28;20265;-63
2022/06/12 03:52:34;;;;;;;11.13;4.30;;;13.50;99.90;;;;;;5013418;28;20210;-64
2022/06/12 03:55:07;;;;;;;7.93;3.30;;;13.50;99.90;;;;;;5013144;28;20280;-63
2022/06/12 03:57:51;;;;;;;8.83;3.83;;;13.50;99.90;;;;;;5013264;28;20206;-63
2022/06/12 04:00:21;;;;;;;8.57;3.60;;;13.50;99.90;;;;;;5013323;28;20688;-63
2022/06/12 04:02:55;;;;;;;11.50;3.90;;;13.40;99.90;;;;;;5013114;28;20681;-63
2022/06/12 04:05:26;;;;;;;11.30;3.90;;;13.50;99.90;;;;;;5012904;28;20640;-62
2022/06/12 04:07:56;;;;;;;8.53;3.67;;;13.50;99.90;;;;;;5012848;28;20253;-63
2022/06/12 04:10:27;;;;;;;7.47;3.63;;;13.50;99.90;;;;;;5012184;28;20214;-62
2022/06/12 04:12:54;;;;;;;10.87;3.83;;;13.60;99.90;;;;;;5013136;28;20275;-63
2022/06/12 04:15:26;;;;;;;7.27;3.63;;;13.60;99.90;;;;;;5012769;28;20287;-63
2022/06/12 04:17:56;;;;;;;7.80;3.27;;;13.60;99.90;;;;;;5012436;28;20253;-63
2022/06/12 04:20:26;;;;;;;9.60;4.20;;;13.70;99.90;;;;;;5013308;28;20210;-63
2022/06/12 04:22:58;;;;;;;7.63;3.60;;;13.70;99.90;;;;;;5013099;28;20256;-63
2022/06/12 04:25:48;;;;;;;10.27;4.00;;;13.70;99.90;;;;;;5012878;28;20245;-63
2022/06/12 04:28:28;;;;;;;7.43;3.73;;;13.80;99.90;;;;;;5008661;28;20579;-63
2022/06/12 04:30:56;;;;;;;8.50;3.37;;;13.80;99.90;;;;;;5013010;28;20260;-63
2022/06/12 04:33:37;;;;;;;7.47;4.10;;;13.80;99.90;;;;;;5012732;28;20257;-62
2022/06/12 04:36:05;;;;;;;8.23;3.77;;;13.90;99.90;;;;;;5012224;28;20226;-63
2022/06/12 04:38:34;;;;;;;12.00;4.10;;;13.90;99.90;;;;;;5012239;28;20210;-63
2022/06/12 04:41:01;;;;;;;9.13;3.80;;;14.00;99.90;;;;;;5012498;28;20271;-63
2022/06/12 04:43:29;;;;;;;8.40;3.97;;;14.10;99.90;;;;;;5012394;28;20689;-62
2022/06/12 04:45:57;;;;;;;6.07;3.27;;;14.10;99.90;;;;;;5012069;28;20694;-62
2022/06/12 04:48:32;;;;;;;10.17;4.13;;;14.20;99.90;;;;;;5012466;28;20677;-62
2022/06/12 04:50:58;;;;;;;8.73;3.80;;;14.20;99.90;;;;;;5012220;28;20256;-63
2022/06/12 04:53:25;;;;;;;7.50;3.30;;;14.30;99.90;;;;;;5012491;28;20238;-63
2022/06/12 04:55:52;;;;;;;8.67;3.57;;;14.40;99.90;;;;;;5012813;28;20226;-63
2022/06/12 04:58:19;;;;;;;7.37;3.63;;;14.40;99.90;;;;;;5012757;28;20202;-63
2022/06/12 05:00:45;;;;;;;10.53;3.27;;;14.50;99.90;;;;;;5012580;28;20207;-63
2022/06/12 05:03:12;;;;;;;8.27;3.30;;;14.60;99.90;;;;;;5012623;28;20207;-62
2022/06/12 05:05:41;;;;;;;7.40;3.30;;;14.60;99.90;;;;;;5012127;28;20670;-63
2022/06/12 05:08:08;;;;;;;5.87;2.93;;;14.70;99.90;;;;;;5011854;28;20732;-62
2022/06/12 05:10:35;;;;;;;5.47;3.13;;;14.80;94.80;;;;;;5012467;28;20587;-63
2022/06/12 05:13:01;;;;;;;10.60;2.97;;;14.90;88.70;;;;;;5011860;28;20214;-63
2022/06/12 05:15:28;;;;;;;8.03;3.00;;;14.90;81.60;;;;;;5012064;28;20301;-63
2022/06/12 05:17:55;;;;;;;7.20;2.93;;;15.00;72.50;;;;;;5011687;28;20257;-63
2022/06/12 05:20:24;;;;;;;7.53;3.10;;;15.10;64.20;;;;;;5011757;28;20733;-63
2022/06/12 05:22:52;;;;;;;4.97;3.03;;;15.20;52.90;;;;;;5012033;28;20269;-62
2022/06/12 05:25:20;;;;;;;5.73;2.90;;;15.20;33.10;;;;;;5011882;28;20308;-63
2022/06/12 05:27:48;;;;;;;6.67;2.50;;;15.30;19.30;;;;;;5011787;28;20285;-63
2022/06/12 05:30:18;;;;;;;9.03;2.87;;;15.30;1.00;;;;;;5011932;28;20210;-63
2022/06/12 05:32:47;;;;;;;8.07;2.50;;;15.40;1.00;;;;;;5011724;28;20253;-62
2022/06/12 05:35:15;;;;;;;5.53;3.00;;;15.50;1.00;;;;;;5011812;28;20222;-63
2022/06/12 05:37:42;;;;;;;5.77;2.30;;;15.60;1.00;;;;;;5011599;28;20877;-62
2022/06/12 05:40:15;;;;;;;5.90;2.63;;;15.60;1.00;;;;;;5011900;28;20222;-63
2022/06/12 05:42:43;;;;;;;7.33;2.13;;;15.70;1.00;;;;;;5012042;28;20687;-63
2022/06/12 05:45:13;;;;;;;4.83;2.13;;;15.70;1.00;;;;;;5011676;28;20702;-63
2022/06/12 05:47:45;;;;;;;6.30;2.13;;;15.80;99.90;;;;;;5011385;28;20206;-63
2022/06/12 05:50:12;;;;;;;4.10;2.03;;;15.80;99.90;;;;;;5012014;28;20218;-63
2022/06/12 05:52:39;;;;;;;9.40;2.40;;;15.90;99.90;;;;;;5011792;28;20280;-63
2022/06/12 05:55:07;;;;;;;4.73;2.00;;;16.00;99.90;;;;;;5011854;28;20621;-63
2022/06/12 05:57:35;;;;;;;8.20;2.23;;;16.10;60.00;;;;;;5011269;28;20238;-63
2022/06/12 06:00:04;;;;;;;8.10;2.40;;;16.20;1.00;;;;;;5011701;28;20211;-63
2022/06/12 06:02:30;;;;;;;5.93;2.10;;;16.20;1.00;;;;;;5011805;28;20226;-63
2022/06/12 06:04:57;;;;;;;5.67;2.10;;;16.40;1.00;;;;;;5011344;28;20767;-63
2022/06/12 06:07:24;;;;;;;6.60;2.00;;;16.40;99.90;;;;;;5011479;28;20215;-63
2022/06/12 06:09:50;;;;;;;5.87;1.63;;;16.50;99.90;;;;;;5011559;28;20211;-63
2022/06/12 06:12:18;;;;;;;11.47;3.23;;;16.60;46.80;;;;;;5011547;28;20207;-63
2022/06/12 06:14:46;;;;;;;5.93;2.40;;;16.60;34.10;;;;;;5011629;28;20666;-63
2022/06/12 06:17:13;;;;;;;10.13;2.33;;;16.70;79.10;;;;;;5011275;28;20630;-63
2022/06/12 06:19:39;;;;;;;5.70;1.80;;;16.70;1.00;;;;;;5011475;28;20614;-63
2022/06/12 06:22:06;;;;;;;5.77;1.93;;;16.80;1.00;;;;;;5011716;28;20633;-63
2022/06/12 06:24:33;;;;;;;7.20;2.80;;;16.90;1.00;;;;;;5011610;28;20227;-63
2022/06/12 06:26:59;;;;;;;8.73;2.50;;;17.00;1.00;;;;;;5010798;28;20655;-62
2022/06/12 06:29:26;;;;;;;6.77;2.03;;;17.10;1.00;;;;;;5011748;28;20600;-63
2022/06/12 06:31:54;;;;;;;7.80;2.03;;;17.20;1.00;;;;;;5011465;28;20259;-63
2022/06/12 06:34:21;;;;;;;8.03;2.23;;;17.20;1.00;;;;;;5014018;28;20274;-63
2022/06/12 06:36:47;;;;;;;6.17;1.93;;;17.30;1.00;;;;;;5014441;28;20203;-63
2022/06/12 06:39:14;;;;;;;8.37;1.83;;;17.40;1.00;;;;;;5014913;28;20281;-64
2022/06/12 06:41:41;;;;;;;9.20;2.10;;;17.40;99.90;;;;;;5014978;28;20289;-63
2022/06/12 06:46:51;;;;;;;5.50;1.70;;;17.60;99.90;;;;;;5014432;28;20612;-62
2022/06/12 06:49:20;;;;;;;6.73;1.87;;;17.50;99.90;;;;;;5014573;28;20650;-64
2022/06/12 06:51:46;;;;;;;8.43;1.93;;;17.60;99.90;;;;;;5014634;28;20242;-64
2022/06/12 06:54:13;;;;;;;5.63;1.73;;;17.70;99.90;;;;;;5014244;28;20678;-62
2022/06/12 06:56:40;;;;;;;4.03;1.63;;;17.80;99.90;;;;;;5014341;28;20211;-62
2022/06/12 06:59:06;;;;;;;5.83;2.17;;;18.00;99.90;;;;;;5014668;28;20215;-62
2022/06/12 07:01:34;;;;;;;9.30;2.30;;;18.20;99.90;;;;;;5014528;28;20211;-62
2022/06/12 07:04:01;;;;;;;6.57;2.40;;;18.20;99.90;;;;;;5014430;28;20210;-62
2022/06/12 07:06:30;;;;;;;6.00;1.83;;;18.40;99.90;;;;;;5013884;28;20230;-62
2022/06/12 07:08:57;;;;;;;7.60;2.00;;;18.60;99.90;;;;;;5014318;28;20215;-62
2022/06/12 07:11:25;;;;;;;7.33;2.37;;;18.70;99.90;;;;;;5014153;28;20678;-62
2022/06/12 07:13:52;;;;;;;11.23;2.30;;;18.90;99.90;;;;;;5014258;28;20686;-62
2022/06/12 07:16:20;;;;;;;7.33;1.83;;;19.00;99.90;;;;;;5013715;28;20215;-62
2022/06/12 07:18:47;;;;;;;7.20;2.17;;;19.10;99.90;;;;;;5014176;28;20344;-62
2022/06/12 07:21:14;;;;;;;7.07;2.23;;;19.10;99.90;;;;;;5013861;28;20211;-62
2022/06/12 07:23:42;;;;;;;9.83;2.00;;;19.20;99.90;;;;;;5014113;28;20624;-62
2022/06/12 07:26:17;;;;;;;10.30;1.90;;;19.30;99.90;;;;;;5013501;28;20234;-63
2022/06/12 07:28:44;;;;;;;4.60;1.57;;;19.40;99.90;;;;;;5014063;28;20210;-61
2022/06/12 07:31:11;;;;;;;5.77;1.53;;;19.50;99.90;;;;;;5014476;28;20207;-61
2022/06/12 07:33:38;;;;;;;7.27;1.80;;;19.70;99.90;;;;;;5013463;28;20206;-62
2022/06/12 07:36:05;;;;;;;11.50;1.57;;;19.80;99.90;;;;;;5013895;28;20310;-64
2022/06/12 07:38:32;;;;;;;5.63;1.63;;;19.90;99.90;;;;;;5014136;28;20215;-63
2022/06/12 07:41:03;;;;;;;4.70;1.60;;;20.10;99.90;;;;;;5013686;28;20230;-64
2022/06/12 07:43:33;;;;;;;8.53;1.73;;;20.20;99.90;;;;;;5013749;28;20234;-64
2022/06/12 07:46:00;;;;;;;8.87;1.83;;;20.20;99.90;;;;;;5012998;28;20241;-64
2022/06/12 07:48:27;;;;;;;10.83;2.07;;;20.30;99.90;;;;;;5013435;28;20211;-64
2022/06/12 07:50:55;;;;;;;9.10;1.73;;;20.50;99.90;;;;;;5013386;28;20277;-61
2022/06/12 07:53:23;;;;;;;6.17;2.33;;;20.60;99.90;;;;;;5013656;28;20621;-63
2022/06/12 07:55:52;;;;;;;12.90;2.03;;;20.70;99.90;;;;;;5013431;28;20223;-63
2022/06/12 07:58:23;;;;;;;7.37;2.03;;;20.90;99.90;;;;;;5013178;28;20257;-63
2022/06/12 08:00:49;;;;;;;7.43;1.90;;;20.80;99.90;;;;;;5013219;28;20203;-63
2022/06/12 08:03:16;;;;;;;5.80;2.13;;;20.90;99.90;;;;;;5013300;28;20581;-63
2022/06/12 08:05:43;;;;;;;5.50;1.53;;;20.90;99.90;;;;;;5013272;28;20282;-63
2022/06/12 08:08:10;;;;;;;7.13;1.97;;;20.80;99.90;;;;;;5012795;28;20631;-63
2022/06/12 08:10:37;;;;;;;6.10;1.80;;;21.00;99.90;;;;;;5013276;28;20628;-63
2022/06/12 08:13:05;;;;;;;7.73;1.83;;;21.20;99.90;;;;;;5012949;28;20206;-63
2022/06/12 08:15:35;;;;;;;7.77;2.30;;;21.20;99.90;;;;;;5012791;28;20235;-63
2022/06/12 08:18:04;;;;;;;7.90;1.90;;;21.40;99.90;;;;;;5012942;28;20261;-63
2022/06/12 08:20:33;;;;;;;8.10;2.03;;;21.40;99.90;;;;;;5012958;28;20211;-62
2022/06/12 08:23:06;;;;;;;7.73;1.80;;;21.60;99.90;;;;;;5012979;28;20834;-63
2022/06/12 08:25:36;;;;;;;5.87;1.63;;;21.60;99.90;;;;;;5012686;28;20281;-63
2022/06/12 08:28:03;;;;;;;10.20;2.00;;;21.80;99.90;;;;;;5012618;28;20304;-62
2022/06/12 08:30:30;;;;;;;6.33;2.50;;;21.80;99.90;;;;;;5012701;28;20649;-62
2022/06/12 08:32:59;;;;;;;7.93;2.20;;;21.60;99.90;;;;;;5012903;28;20265;-63
2022/06/12 08:35:29;;;;;;;8.93;2.47;;;21.70;99.90;;;;;;5012755;28;20227;-62
2022/06/12 08:37:56;;;;;;;6.20;1.87;;;21.70;99.90;;;;;;5012171;28;20218;-62
2022/06/12 08:40:31;;;;;;;9.80;2.10;;;21.70;99.90;;;;;;5012545;28;20732;-62
2022/06/12 08:43:05;;;;;;;6.63;1.87;;;21.80;99.90;;;;;;5012716;28;20260;-62
2022/06/12 08:45:41;;;;;;;6.30;2.40;;;21.40;99.90;;;;;;5012517;28;20229;-62
2022/06/12 08:48:23;;;;;;;7.83;1.77;;;21.70;99.90;;;;;;5012070;28;20202;-62
2022/06/12 08:50:55;;;;;;;5.13;1.77;;;21.80;99.90;;;;;;5012417;28;20206;-62
2022/06/12 08:53:27;;;;;;;7.33;1.80;;;21.60;99.90;;;;;;5012588;28;20558;-62
2022/06/12 08:55:59;;;;;;;8.73;1.53;;;21.60;99.90;;;;;;5011668;28;20227;-62
2022/06/12 08:58:30;;;;;;;3.13;1.30;;;21.60;99.90;;;;;;5012329;28;20693;-62
2022/06/12 09:00:58;;;;;;;5.50;1.20;;;21.70;99.90;;;;;;5012251;28;20266;-62
2022/06/12 09:03:30;;;;;;;5.67;1.40;;;21.50;99.90;;;;;;5012110;28;20612;-62
2022/06/12 09:06:07;;;;;;;4.70;1.10;;;21.70;99.90;;;;;;5011806;28;20231;-61
2022/06/12 09:08:48;;;;;;;4.43;1.20;;;21.90;99.90;;;;;;5012388;28;20207;-62
2022/06/12 09:11:19;;;;;;;1.33;0.70;;;21.90;99.90;;;;;;5011872;28;20624;-62
2022/06/12 09:13:57;;;;;;;1.13;0.53;;;21.90;99.90;;;;;;5012024;28;20301;-62
2022/06/12 09:16:30;;;;;;;1.60;0.50;;;22.00;99.90;;;;;;5011516;28;20571;-61
2022/06/12 09:19:04;;;;;;;1.00;0.53;;;22.10;99.90;;;;;;5012191;28;20269;-62
2022/06/12 09:21:43;;;;;;;3.90;0.73;;;22.20;99.90;;;;;;5011875;28;20770;-62
2022/06/12 09:24:21;;;;;;;3.23;0.87;;;21.80;99.90;;;;;;5012027;28;20692;-62
2022/06/12 09:26:55;;;;;;;4.83;0.63;;;21.70;99.90;;;;;;5012043;28;20231;-62
2022/06/12 09:29:32;;;;;;;1.80;0.50;;;21.50;99.90;;;;;;5013116;28;20211;-63
2022/06/12 09:32:06;;;;;;;1.80;0.60;;;21.60;99.90;;;;;;5012939;28;20759;-62
2022/06/12 09:34:42;;;;;;;1.73;0.50;;;21.60;99.90;;;;;;5011767;28;20520;-62
2022/06/12 09:40:16;;;;;;;1.50;0.40;;;21.90;99.90;;;;;;5011383;28;20202;-63
2022/06/12 09:42:56;;;;;;;3.63;0.70;;;22.20;99.90;;;;;;5011856;28;20206;-63
2022/06/12 09:45:29;;;;;;;4.57;0.73;;;22.30;99.90;;;;;;5011611;28;20227;-63
2022/06/12 09:48:08;;;;;;;3.30;0.70;;;22.40;99.90;;;;;;5011705;28;20227;-62
2022/06/12 09:50:45;;;;;;;4.67;0.80;;;22.40;99.90;;;;;;5011637;28;20275;-63
2022/06/12 09:53:28;;;;;;;3.77;0.90;;;22.40;99.90;;;;;;5012002;28;20207;-61
2022/06/12 09:55:59;;;;;;;1.97;0.60;;;22.60;99.90;;;;;;5011409;28;20227;-61
2022/06/12 09:58:29;;;;;;;4.90;0.93;;;22.60;99.90;;;;;;5011654;28;20341;-63
2022/06/12 10:01:04;;;;;;;5.70;0.90;;;22.60;99.90;;;;;;5011644;28;20206;-63
2022/06/12 10:03:39;;;;;;;4.17;0.80;;;22.60;99.90;;;;;;5011734;28;20207;-63
2022/06/12 10:06:12;;;;;;;5.20;0.70;;;22.80;99.90;;;;;;5011338;28;20721;-63
2022/06/12 10:08:49;;;;;;;3.60;0.80;;;23.00;99.90;;;;;;5014755;28;20749;-63
2022/06/12 10:11:22;;;;;;;4.27;1.10;;;23.00;99.90;;;;;;5015513;28;20221;-63
2022/06/12 10:13:53;;;;;;;5.13;0.90;;;23.00;99.90;;;;;;5015128;28;20253;-64
2022/06/12 10:16:24;;;;;;;3.17;0.83;;;23.00;99.90;;;;;;5014945;28;20233;-63
2022/06/12 10:18:56;;;;;;;4.23;0.97;;;22.70;99.90;;;;;;5014905;28;20206;-68
2022/06/12 10:21:27;;;;;;;3.93;0.87;;;22.70;99.90;;;;;;5015457;28;20242;-62
2022/06/12 10:23:54;;;;;;;5.00;1.17;;;22.60;99.90;;;;;;5015202;28;20210;-62
2022/06/12 10:26:24;;;;;;;3.67;1.10;;;22.80;99.90;;;;;;5014683;28;20227;-63
2022/06/12 10:29:03;;;;;;;4.40;1.93;;;22.60;99.90;;;;;;5015024;28;20253;-63
2022/06/12 10:31:33;;;;;;;5.03;1.33;;;22.90;99.90;;;;;;5015175;28;20207;-63
2022/06/12 10:34:14;;;;;;;6.03;1.40;;;22.80;99.90;;;;;;5015029;28;20234;-63
2022/06/12 10:36:43;;;;;;;4.53;1.10;;;22.80;99.90;;;;;;5014654;28;20206;-63
2022/06/12 10:39:14;;;;;;;3.70;1.27;;;23.00;99.90;;;;;;5014834;28;20207;-63
2022/06/12 10:41:47;;;;;;;3.93;1.30;;;23.10;99.90;;;;;;5014901;28;20217;-63
2022/06/12 10:44:30;;;;;;;4.33;1.47;;;23.00;99.90;;;;;;5014685;28;20288;-63
2022/06/12 10:47:07;;;;;;;6.03;1.30;;;23.20;99.90;;;;;;5014258;28;20226;-63
2022/06/12 10:49:34;;;;;;;4.47;1.20;;;23.30;99.90;;;;;;5014872;28;20211;-63
2022/06/12 10:52:08;;;;;;;3.70;1.20;;;23.30;99.90;;;;;;5014752;28;20650;-62
2022/06/12 10:54:35;;;;;;;5.70;1.50;;;23.20;99.90;;;;;;5014407;28;20226;-63
2022/06/12 10:57:15;;;;;;;7.33;1.30;;;22.90;99.90;;;;;;5014082;28;20203;-63
2022/06/12 10:59:47;;;;;;;7.77;1.70;;;22.90;99.90;;;;;;5014434;28;20648;-63
2022/06/12 11:02:47;;;;;;;4.50;1.63;;;23.00;99.90;;;;;;5014595;28;20241;-62
2022/06/12 11:05:49;;;;;;;5.07;1.50;;;23.20;99.90;;;;;;5010873;28;20294;-63
2022/06/12 11:08:32;;;;;;;6.03;1.70;;;23.40;99.90;;;;;;5014096;28;20230;-63
2022/06/12 11:11:09;;;;;;;6.40;1.73;;;23.50;99.90;;;;;;5014383;28;20237;-63
2022/06/12 11:13:50;;;;;;;4.50;1.20;;;23.80;99.90;;;;;;5014369;28;20211;-62
2022/06/12 11:16:29;;;;;;;8.27;1.87;;;23.50;99.90;;;;;;5013729;28;20655;-63
2022/06/12 11:19:21;;;;;;;3.80;1.47;;;23.70;99.90;;;;;;5013661;28;20266;-63
2022/06/12 11:21:58;;;;;;;4.67;1.40;;;23.80;99.90;;;;;;5014027;28;20240;-63
2022/06/12 11:24:33;;;;;;;4.73;1.50;;;24.00;99.90;;;;;;5014291;28;20227;-63
2022/06/12 11:27:21;;;;;;;5.37;1.70;;;24.30;99.90;;;;;;5013527;28;20226;-63
2022/06/12 11:30:06;;;;;;;4.80;1.53;;;24.40;99.90;;;;;;5014539;28;20214;-63
2022/06/12 11:32:45;;;;;;;5.77;1.47;;;24.30;99.90;;;;;;5013872;28;20203;-63
2022/06/12 11:35:28;;;;;;;7.10;1.50;;;24.40;99.90;;;;;;5013822;28;20226;-63
2022/06/12 11:38:32;;;;;;;5.33;1.23;;;24.40;99.90;;;;;;5013775;28;20207;-68
2022/06/12 11:41:08;;;;;;;6.03;1.57;;;24.60;99.90;;;;;;5023943;28;20792;-63
2022/06/12 11:43:39;;;;;;;7.50;1.47;;;24.50;99.90;;;;;;5033036;28;20213;-63
2022/06/12 11:46:18;;;;;;;8.07;1.40;;;23.80;99.90;;;;;;5032761;28;20233;-64
2022/06/12 11:49:15;;;;;;;7.03;1.30;;;23.90;99.90;;;;;;5033392;28;20210;-65
2022/06/12 11:51:54;;;;;;;6.67;1.67;;;23.80;99.90;;;;;;5032821;28;20213;-64
2022/06/12 11:54:42;;;;;;;5.03;1.73;;;23.60;99.90;;;;;;5033040;28;20241;-63
2022/06/12 11:57:20;;;;;;;8.10;1.83;;;23.90;99.90;;;;;;5032546;28;20234;-60
2022/06/12 11:59:57;;;;;;;7.73;1.60;;;23.90;99.90;;;;;;5033041;28;20293;-60
2022/06/12 12:02:52;;;;;;;7.47;1.67;;;24.00;99.90;;;;;;5032367;28;20214;-60
2022/06/12 12:05:37;;;;;;;2.93;1.27;;;24.00;99.90;;;;;;5033072;28;20230;-60
2022/06/12 12:08:19;;;;;;;4.10;1.43;;;24.00;99.90;;;;;;5033624;28;20229;-60
2022/06/12 12:10:49;;;;;;;4.67;1.33;;;24.00;99.90;;;;;;5032398;28;20210;-64
2022/06/12 12:13:20;;;;;;;5.00;1.67;;;23.80;99.90;;;;;;5032644;28;20575;-65
2022/06/12 12:15:51;;;;;;;7.17;1.83;;;23.40;99.90;;;;;;5032622;28;20594;-64
2022/06/12 12:18:30;;;;;;;6.97;1.90;;;23.50;99.90;;;;;;5032751;28;20214;-67
2022/06/12 12:20:59;;;;;;;7.73;1.70;;;23.20;99.90;;;;;;5032278;28;20272;-68
2022/06/12 12:23:29;;;;;;;4.63;1.70;;;23.30;99.90;;;;;;5032246;28;20238;-63
2022/06/12 12:26:01;;;;;;;4.00;1.30;;;23.40;99.90;;;;;;5032046;28;20825;-63
2022/06/12 12:28:35;;;;;;;7.40;1.70;;;23.60;99.90;;;;;;5032371;28;20230;-63
2022/06/12 12:31:05;;;;;;;6.73;1.70;;;24.00;99.90;;;;;;5030969;28;20292;-63
2022/06/12 12:33:33;;;;;;;7.90;1.53;;;24.40;99.90;;;;;;5032428;28;20737;-63
2022/06/12 12:41:44;;;;;;;6.57;2.00;;;25.00;99.90;;;;;;5031915;28;20302;-63
2022/06/12 12:44:16;;;;;;;3.30;1.33;;;25.00;99.90;;;;;;5031534;28;20208;-64
2022/06/12 12:46:47;;;;;;;8.20;2.10;;;24.50;99.90;;;;;;5031789;28;20203;-60
2022/06/12 12:49:25;;;;;;;3.93;1.93;;;24.40;99.90;;;;;;5031886;28;20207;-61
2022/06/12 12:51:52;;;;;;;7.77;1.97;;;24.20;99.90;;;;;;5031703;28;20217;-66
2022/06/12 12:54:20;;;;;;;8.63;2.33;;;24.30;99.90;;;;;;5031522;28;20234;-64
2022/06/12 12:56:58;;;;;;;4.47;1.47;;;24.10;99.90;;;;;;5031260;28;20272;-65
2022/06/12 12:59:38;;;;;;;8.53;2.27;;;23.80;99.90;;;;;;5031337;28;20214;-65
2022/06/12 13:02:22;;;;;;;6.53;2.20;;;23.80;99.90;;;;;;5031370;28;20248;-64
2022/06/12 13:04:50;;;;;;;7.80;1.77;;;23.90;99.90;;;;;;5031603;28;20276;-66
2022/06/12 13:07:43;;;;;;;6.57;1.90;;;23.90;99.90;;;;;;5030973;28;20284;-64
2022/06/12 13:10:54;;;;;;;6.47;1.73;;;24.00;99.90;;;;;;5031606;28;20563;-65
2022/06/12 13:13:41;;;;;;;7.13;1.90;;;24.60;99.90;;;;;;5001805;28;20209;-62
2022/06/12 13:16:15;;;;;;;9.77;2.10;;;24.80;99.90;;;;;;5030923;28;20743;-62
2022/06/12 13:19:00;;;;;;;5.63;2.10;;;24.40;99.90;;;;;;5031695;28;20198;-62
2022/06/12 13:21:37;;;;;;;6.23;1.77;;;24.30;99.90;;;;;;5031303;28;20272;-63
2022/06/12 13:24:29;;;;;;;8.37;2.23;;;24.20;99.90;;;;;;5031134;28;20283;-62
2022/06/12 13:26:56;;;;;;;5.70;1.77;;;24.00;99.90;;;;;;5030974;28;20264;-62
2022/06/12 13:29:24;;;;;;;6.33;1.93;;;23.90;99.90;;;;;;5031422;28;20919;-63